sensor_id;sensor_type;location;lat;lon;timestamp;P1;durP1;ratioP1;P2;durP2;ratioP2
15502;SDS011;7853;52.186;5.948;2022-08-07T00:02:58;3.57;;;2.48;;
15502;SDS011;7853;52.186;5.948;2022-08-07T00:02:58;4.42;;;2.74;;
15502;SDS011;7853;52.186;5.948;2022-08-07T00:03:03;4.79;;;2.90;;
15502;SDS011;7853;52.186;5.948;2022-08-07T00:03:45;3.37;;;2.43;;
15502;SDS011;7853;52.186;5.948;2022-08-07T00:04:45;4.09;;;2.68;;
15502;SDS011;7853;52.186;5.948;2022-08-07T00:05:45;4.80;;;2.93;;
15502;SDS011;7853;52.186;5.948;2022-08-07T00:06:45;2.96;;;2.44;;
15502;SDS011;7853;52.186;5.948;2022-08-07T00:07:46;3.28;;;2.36;;
15502;SDS011;7853;52.186;5.948;2022-08-07T00:08:46;3.99;;;2.41;;
15502;SDS011;7853;52.186;5.948;2022-08-07T00:09:46;4.03;;;2.44;;
15502;SDS011;7853;52.186;5.948;2022-08-07T00:10:46;2.78;;;2.25;;
15502;SDS011;7853;52.186;5.948;2022-08-07T00:11:46;2.86;;;2.37;;
15502;SDS011;7853;52.186;5.948;2022-08-07T00:12:46;3.84;;;2.36;;
15502;SDS011;7853;52.186;5.948;2022-08-07T00:13:46;4.27;;;2.48;;
15502;SDS011;7853;52.186;5.948;2022-08-07T00:14:46;3.91;;;3.05;;
15502;SDS011;7853;52.186;5.948;2022-08-07T00:15:46;5.14;;;3.42;;
15502;SDS011;7853;52.186;5.948;2022-08-07T00:16:46;6.87;;;3.85;;
15502;SDS011;7853;52.186;5.948;2022-08-07T00:17:46;5.16;;;3.52;;
15502;SDS011;7853;52.186;5.948;2022-08-07T00:18:46;5.82;;;3.65;;
15502;SDS011;7853;52.186;5.948;2022-08-07T00:19:46;4.58;;;3.43;;
15502;SDS011;7853;52.186;5.948;2022-08-07T00:20:46;4.25;;;3.32;;
15502;SDS011;7853;52.186;5.948;2022-08-07T00:21:46;4.65;;;3.51;;
15502;SDS011;7853;52.186;5.948;2022-08-07T00:22:46;4.42;;;3.18;;
15502;SDS011;7853;52.186;5.948;2022-08-07T00:23:46;4.26;;;2.95;;
15502;SDS011;7853;52.186;5.948;2022-08-07T00:24:46;4.01;;;3.23;;
15502;SDS011;7853;52.186;5.948;2022-08-07T00:25:47;4.46;;;2.95;;
15502;SDS011;7853;52.186;5.948;2022-08-07T00:26:46;6.32;;;3.36;;
15502;SDS011;7853;52.186;5.948;2022-08-07T00:27:46;3.62;;;2.83;;
15502;SDS011;7853;52.186;5.948;2022-08-07T00:28:47;4.55;;;2.80;;
15502;SDS011;7853;52.186;5.948;2022-08-07T00:29:47;4.33;;;2.97;;
15502;SDS011;7853;52.186;5.948;2022-08-07T00:30:47;3.25;;;2.54;;
15502;SDS011;7853;52.186;5.948;2022-08-07T00:31:47;3.97;;;2.55;;
15502;SDS011;7853;52.186;5.948;2022-08-07T00:32:47;4.65;;;2.55;;
15502;SDS011;7853;52.186;5.948;2022-08-07T00:33:47;4.71;;;2.55;;
15502;SDS011;7853;52.186;5.948;2022-08-07T00:34:47;5.08;;;2.74;;
15502;SDS011;7853;52.186;5.948;2022-08-07T00:35:47;3.61;;;2.47;;
15502;SDS011;7853;52.186;5.948;2022-08-07T00:36:47;2.86;;;2.27;;
15502;SDS011;7853;52.186;5.948;2022-08-07T00:37:47;3.46;;;2.51;;
15502;SDS011;7853;52.186;5.948;2022-08-07T00:38:47;3.86;;;2.56;;
15502;SDS011;7853;52.186;5.948;2022-08-07T00:39:47;3.75;;;2.56;;
15502;SDS011;7853;52.186;5.948;2022-08-07T00:40:47;5.27;;;2.71;;
15502;SDS011;7853;52.186;5.948;2022-08-07T00:41:48;4.24;;;2.46;;
15502;SDS011;7853;52.186;5.948;2022-08-07T00:42:47;2.96;;;2.61;;
15502;SDS011;7853;52.186;5.948;2022-08-07T00:43:47;4.73;;;2.65;;
15502;SDS011;7853;52.186;5.948;2022-08-07T00:44:47;3.17;;;2.17;;
15502;SDS011;7853;52.186;5.948;2022-08-07T00:45:47;3.44;;;2.75;;
15502;SDS011;7853;52.186;5.948;2022-08-07T00:46:47;3.47;;;2.33;;
15502;SDS011;7853;52.186;5.948;2022-08-07T00:47:48;3.65;;;2.55;;
15502;SDS011;7853;52.186;5.948;2022-08-07T00:48:47;5.55;;;2.72;;
15502;SDS011;7853;52.186;5.948;2022-08-07T00:49:47;3.87;;;2.47;;
15502;SDS011;7853;52.186;5.948;2022-08-07T00:50:47;4.06;;;2.41;;
15502;SDS011;7853;52.186;5.948;2022-08-07T00:51:48;4.50;;;2.44;;
15502;SDS011;7853;52.186;5.948;2022-08-07T00:52:48;3.56;;;2.47;;
15502;SDS011;7853;52.186;5.948;2022-08-07T00:53:48;5.06;;;2.23;;
15502;SDS011;7853;52.186;5.948;2022-08-07T00:54:48;4.43;;;2.44;;
15502;SDS011;7853;52.186;5.948;2022-08-07T00:55:48;4.06;;;2.77;;
15502;SDS011;7853;52.186;5.948;2022-08-07T00:56:48;3.61;;;2.62;;
15502;SDS011;7853;52.186;5.948;2022-08-07T00:57:48;3.89;;;2.52;;
15502;SDS011;7853;52.186;5.948;2022-08-07T00:58:48;2.94;;;2.24;;
15502;SDS011;7853;52.186;5.948;2022-08-07T00:59:48;4.42;;;2.62;;
15502;SDS011;7853;52.186;5.948;2022-08-07T01:00:48;3.29;;;2.56;;
15502;SDS011;7853;52.186;5.948;2022-08-07T01:01:48;3.53;;;2.51;;
15502;SDS011;7853;52.186;5.948;2022-08-07T01:02:48;3.25;;;2.68;;
15502;SDS011;7853;52.186;5.948;2022-08-07T01:03:49;3.71;;;2.44;;
15502;SDS011;7853;52.186;5.948;2022-08-07T01:04:48;3.65;;;2.52;;
15502;SDS011;7853;52.186;5.948;2022-08-07T01:05:48;3.36;;;2.56;;
15502;SDS011;7853;52.186;5.948;2022-08-07T01:06:48;3.77;;;2.36;;
15502;SDS011;7853;52.186;5.948;2022-08-07T01:07:48;5.28;;;2.44;;
15502;SDS011;7853;52.186;5.948;2022-08-07T01:08:49;4.15;;;2.47;;
15502;SDS011;7853;52.186;5.948;2022-08-07T01:09:49;3.75;;;2.62;;
15502;SDS011;7853;52.186;5.948;2022-08-07T01:10:49;4.47;;;2.35;;
15502;SDS011;7853;52.186;5.948;2022-08-07T01:11:49;3.38;;;2.56;;
15502;SDS011;7853;52.186;5.948;2022-08-07T01:12:49;2.91;;;2.45;;
15502;SDS011;7853;52.186;5.948;2022-08-07T01:13:49;3.13;;;2.64;;
15502;SDS011;7853;52.186;5.948;2022-08-07T01:14:49;5.32;;;2.84;;
15502;SDS011;7853;52.186;5.948;2022-08-07T01:15:49;3.62;;;2.74;;
15502;SDS011;7853;52.186;5.948;2022-08-07T01:16:49;3.27;;;2.57;;
15502;SDS011;7853;52.186;5.948;2022-08-07T01:17:49;2.94;;;2.40;;
15502;SDS011;7853;52.186;5.948;2022-08-07T01:18:49;3.88;;;2.67;;
15502;SDS011;7853;52.186;5.948;2022-08-07T01:19:49;3.71;;;2.89;;
15502;SDS011;7853;52.186;5.948;2022-08-07T01:20:53;4.35;;;2.58;;
15502;SDS011;7853;52.186;5.948;2022-08-07T01:21:49;4.58;;;2.92;;
15502;SDS011;7853;52.186;5.948;2022-08-07T01:22:49;5.15;;;2.82;;
15502;SDS011;7853;52.186;5.948;2022-08-07T01:23:49;3.85;;;2.59;;
15502;SDS011;7853;52.186;5.948;2022-08-07T01:24:49;4.20;;;2.65;;
15502;SDS011;7853;52.186;5.948;2022-08-07T01:25:49;3.60;;;2.65;;
15502;SDS011;7853;52.186;5.948;2022-08-07T01:26:50;3.94;;;2.68;;
15502;SDS011;7853;52.186;5.948;2022-08-07T01:27:49;4.10;;;2.75;;
15502;SDS011;7853;52.186;5.948;2022-08-07T01:28:50;4.98;;;2.74;;
15502;SDS011;7853;52.186;5.948;2022-08-07T01:29:50;4.05;;;2.77;;
15502;SDS011;7853;52.186;5.948;2022-08-07T01:30:50;4.08;;;2.76;;
15502;SDS011;7853;52.186;5.948;2022-08-07T01:31:50;4.15;;;2.57;;
15502;SDS011;7853;52.186;5.948;2022-08-07T01:32:50;4.76;;;2.73;;
15502;SDS011;7853;52.186;5.948;2022-08-07T01:33:50;4.09;;;2.57;;
15502;SDS011;7853;52.186;5.948;2022-08-07T01:34:50;4.17;;;2.69;;
15502;SDS011;7853;52.186;5.948;2022-08-07T01:35:50;3.82;;;2.72;;
15502;SDS011;7853;52.186;5.948;2022-08-07T01:36:50;4.39;;;2.79;;
15502;SDS011;7853;52.186;5.948;2022-08-07T01:37:50;4.04;;;3.04;;
15502;SDS011;7853;52.186;5.948;2022-08-07T01:38:50;3.66;;;2.51;;
15502;SDS011;7853;52.186;5.948;2022-08-07T01:39:50;4.80;;;2.83;;
15502;SDS011;7853;52.186;5.948;2022-08-07T01:40:50;4.34;;;2.49;;
15502;SDS011;7853;52.186;5.948;2022-08-07T01:41:51;4.99;;;2.70;;
15502;SDS011;7853;52.186;5.948;2022-08-07T01:42:50;6.41;;;2.85;;
15502;SDS011;7853;52.186;5.948;2022-08-07T01:43:50;3.40;;;2.88;;
15502;SDS011;7853;52.186;5.948;2022-08-07T01:44:50;3.91;;;2.87;;
15502;SDS011;7853;52.186;5.948;2022-08-07T01:45:50;4.80;;;2.76;;
15502;SDS011;7853;52.186;5.948;2022-08-07T01:46:50;3.50;;;2.44;;
15502;SDS011;7853;52.186;5.948;2022-08-07T01:47:50;4.24;;;2.80;;
15502;SDS011;7853;52.186;5.948;2022-08-07T01:48:50;3.97;;;2.71;;
15502;SDS011;7853;52.186;5.948;2022-08-07T01:49:50;4.61;;;2.63;;
15502;SDS011;7853;52.186;5.948;2022-08-07T01:50:53;4.55;;;3.11;;
15502;SDS011;7853;52.186;5.948;2022-08-07T01:51:51;3.16;;;2.52;;
15502;SDS011;7853;52.186;5.948;2022-08-07T01:52:51;3.86;;;2.65;;
15502;SDS011;7853;52.186;5.948;2022-08-07T01:53:52;3.46;;;2.59;;
15502;SDS011;7853;52.186;5.948;2022-08-07T01:54:51;3.29;;;2.62;;
15502;SDS011;7853;52.186;5.948;2022-08-07T01:55:52;4.09;;;2.91;;
15502;SDS011;7853;52.186;5.948;2022-08-07T01:56:52;3.67;;;2.59;;
15502;SDS011;7853;52.186;5.948;2022-08-07T01:57:51;4.10;;;2.60;;
15502;SDS011;7853;52.186;5.948;2022-08-07T01:58:52;4.62;;;2.89;;
15502;SDS011;7853;52.186;5.948;2022-08-07T01:59:53;4.69;;;2.67;;
15502;SDS011;7853;52.186;5.948;2022-08-07T02:00:52;3.46;;;2.43;;
15502;SDS011;7853;52.186;5.948;2022-08-07T02:01:53;4.37;;;2.70;;
15502;SDS011;7853;52.186;5.948;2022-08-07T02:02:52;4.00;;;2.57;;
15502;SDS011;7853;52.186;5.948;2022-08-07T02:03:52;4.66;;;2.77;;
15502;SDS011;7853;52.186;5.948;2022-08-07T02:04:53;3.96;;;2.67;;
15502;SDS011;7853;52.186;5.948;2022-08-07T02:05:53;5.65;;;3.02;;
15502;SDS011;7853;52.186;5.948;2022-08-07T02:06:52;3.80;;;2.77;;
15502;SDS011;7853;52.186;5.948;2022-08-07T02:07:52;4.21;;;2.64;;
15502;SDS011;7853;52.186;5.948;2022-08-07T02:08:52;3.38;;;2.89;;
15502;SDS011;7853;52.186;5.948;2022-08-07T02:09:52;4.23;;;2.87;;
15502;SDS011;7853;52.186;5.948;2022-08-07T02:10:52;4.26;;;3.14;;
15502;SDS011;7853;52.186;5.948;2022-08-07T02:11:52;3.70;;;2.82;;
15502;SDS011;7853;52.186;5.948;2022-08-07T02:12:52;4.65;;;3.12;;
15502;SDS011;7853;52.186;5.948;2022-08-07T02:13:52;3.73;;;2.90;;
15502;SDS011;7853;52.186;5.948;2022-08-07T02:14:53;3.79;;;2.71;;
15502;SDS011;7853;52.186;5.948;2022-08-07T02:15:52;4.53;;;3.06;;
15502;SDS011;7853;52.186;5.948;2022-08-07T02:16:52;4.27;;;3.12;;
15502;SDS011;7853;52.186;5.948;2022-08-07T02:17:52;5.60;;;3.20;;
15502;SDS011;7853;52.186;5.948;2022-08-07T02:18:52;4.05;;;2.84;;
15502;SDS011;7853;52.186;5.948;2022-08-07T02:19:52;5.43;;;3.02;;
15502;SDS011;7853;52.186;5.948;2022-08-07T02:20:52;3.85;;;2.76;;
15502;SDS011;7853;52.186;5.948;2022-08-07T02:21:52;4.86;;;3.01;;
15502;SDS011;7853;52.186;5.948;2022-08-07T02:22:53;3.95;;;2.87;;
15502;SDS011;7853;52.186;5.948;2022-08-07T02:23:52;4.54;;;2.84;;
15502;SDS011;7853;52.186;5.948;2022-08-07T02:24:53;4.21;;;3.06;;
15502;SDS011;7853;52.186;5.948;2022-08-07T02:25:52;3.39;;;2.81;;
15502;SDS011;7853;52.186;5.948;2022-08-07T02:26:52;3.65;;;2.62;;
15502;SDS011;7853;52.186;5.948;2022-08-07T02:27:52;5.06;;;3.04;;
15502;SDS011;7853;52.186;5.948;2022-08-07T02:28:52;4.23;;;3.12;;
15502;SDS011;7853;52.186;5.948;2022-08-07T02:29:52;4.21;;;3.02;;
15502;SDS011;7853;52.186;5.948;2022-08-07T02:30:53;3.93;;;2.95;;
15502;SDS011;7853;52.186;5.948;2022-08-07T02:31:53;4.38;;;2.68;;
15502;SDS011;7853;52.186;5.948;2022-08-07T02:32:53;3.90;;;2.99;;
15502;SDS011;7853;52.186;5.948;2022-08-07T02:33:53;4.43;;;3.19;;
15502;SDS011;7853;52.186;5.948;2022-08-07T02:34:53;3.81;;;2.74;;
15502;SDS011;7853;52.186;5.948;2022-08-07T02:35:53;4.17;;;2.97;;
15502;SDS011;7853;52.186;5.948;2022-08-07T02:36:53;3.58;;;2.89;;
15502;SDS011;7853;52.186;5.948;2022-08-07T02:37:54;5.25;;;3.18;;
15502;SDS011;7853;52.186;5.948;2022-08-07T02:38:53;4.62;;;2.72;;
15502;SDS011;7853;52.186;5.948;2022-08-07T02:39:53;3.80;;;2.94;;
15502;SDS011;7853;52.186;5.948;2022-08-07T02:40:53;3.92;;;2.77;;
15502;SDS011;7853;52.186;5.948;2022-08-07T02:41:53;4.68;;;3.35;;
15502;SDS011;7853;52.186;5.948;2022-08-07T02:42:53;5.88;;;3.37;;
15502;SDS011;7853;52.186;5.948;2022-08-07T02:43:53;4.66;;;2.90;;
15502;SDS011;7853;52.186;5.948;2022-08-07T02:44:53;5.85;;;3.22;;
15502;SDS011;7853;52.186;5.948;2022-08-07T02:45:53;4.28;;;3.25;;
15502;SDS011;7853;52.186;5.948;2022-08-07T02:46:53;5.73;;;3.58;;
15502;SDS011;7853;52.186;5.948;2022-08-07T02:47:53;5.19;;;3.34;;
15502;SDS011;7853;52.186;5.948;2022-08-07T02:48:54;6.24;;;3.78;;
15502;SDS011;7853;52.186;5.948;2022-08-07T02:49:54;4.57;;;3.35;;
15502;SDS011;7853;52.186;5.948;2022-08-07T02:50:54;5.59;;;3.41;;
15502;SDS011;7853;52.186;5.948;2022-08-07T02:51:54;5.07;;;3.42;;
15502;SDS011;7853;52.186;5.948;2022-08-07T02:52:55;5.92;;;3.17;;
15502;SDS011;7853;52.186;5.948;2022-08-07T02:53:54;4.71;;;3.45;;
15502;SDS011;7853;52.186;5.948;2022-08-07T02:54:54;4.44;;;3.18;;
15502;SDS011;7853;52.186;5.948;2022-08-07T02:55:54;4.94;;;3.05;;
15502;SDS011;7853;52.186;5.948;2022-08-07T02:56:54;6.32;;;3.36;;
15502;SDS011;7853;52.186;5.948;2022-08-07T02:57:55;4.43;;;3.36;;
15502;SDS011;7853;52.186;5.948;2022-08-07T02:58:54;4.65;;;3.26;;
15502;SDS011;7853;52.186;5.948;2022-08-07T02:59:54;3.92;;;2.97;;
15502;SDS011;7853;52.186;5.948;2022-08-07T03:00:54;4.35;;;3.25;;
15502;SDS011;7853;52.186;5.948;2022-08-07T03:01:54;4.40;;;3.21;;
15502;SDS011;7853;52.186;5.948;2022-08-07T03:02:54;4.78;;;3.23;;
15502;SDS011;7853;52.186;5.948;2022-08-07T03:03:54;5.18;;;3.51;;
15502;SDS011;7853;52.186;5.948;2022-08-07T03:04:54;4.89;;;3.18;;
15502;SDS011;7853;52.186;5.948;2022-08-07T03:05:54;5.58;;;3.47;;
15502;SDS011;7853;52.186;5.948;2022-08-07T03:06:54;4.86;;;3.43;;
15502;SDS011;7853;52.186;5.948;2022-08-07T03:07:55;5.03;;;3.55;;
15502;SDS011;7853;52.186;5.948;2022-08-07T03:08:55;4.99;;;3.65;;
15502;SDS011;7853;52.186;5.948;2022-08-07T03:09:55;4.90;;;3.52;;
15502;SDS011;7853;52.186;5.948;2022-08-07T03:10:55;5.57;;;3.61;;
15502;SDS011;7853;52.186;5.948;2022-08-07T03:11:55;4.88;;;3.50;;
15502;SDS011;7853;52.186;5.948;2022-08-07T03:12:55;5.89;;;3.66;;
15502;SDS011;7853;52.186;5.948;2022-08-07T03:13:55;4.66;;;3.43;;
15502;SDS011;7853;52.186;5.948;2022-08-07T03:14:55;4.86;;;3.40;;
15502;SDS011;7853;52.186;5.948;2022-08-07T03:15:55;4.81;;;3.75;;
15502;SDS011;7853;52.186;5.948;2022-08-07T03:16:55;5.42;;;3.35;;
15502;SDS011;7853;52.186;5.948;2022-08-07T03:17:55;4.96;;;3.50;;
15502;SDS011;7853;52.186;5.948;2022-08-07T03:18:55;5.51;;;3.66;;
15502;SDS011;7853;52.186;5.948;2022-08-07T03:19:55;4.69;;;3.51;;
15502;SDS011;7853;52.186;5.948;2022-08-07T03:20:55;4.64;;;3.38;;
15502;SDS011;7853;52.186;5.948;2022-08-07T03:21:55;5.39;;;3.65;;
15502;SDS011;7853;52.186;5.948;2022-08-07T03:22:55;6.24;;;3.46;;
15502;SDS011;7853;52.186;5.948;2022-08-07T03:23:56;6.11;;;3.74;;
15502;SDS011;7853;52.186;5.948;2022-08-07T03:24:55;4.49;;;3.54;;
15502;SDS011;7853;52.186;5.948;2022-08-07T03:25:55;5.90;;;3.94;;
15502;SDS011;7853;52.186;5.948;2022-08-07T03:26:57;4.66;;;3.67;;
15502;SDS011;7853;52.186;5.948;2022-08-07T03:27:56;5.09;;;3.93;;
15502;SDS011;7853;52.186;5.948;2022-08-07T03:28:56;5.53;;;3.72;;
15502;SDS011;7853;52.186;5.948;2022-08-07T03:29:56;5.75;;;3.82;;
15502;SDS011;7853;52.186;5.948;2022-08-07T03:30:56;6.70;;;3.61;;
15502;SDS011;7853;52.186;5.948;2022-08-07T03:31:56;7.00;;;4.06;;
15502;SDS011;7853;52.186;5.948;2022-08-07T03:32:56;5.03;;;3.54;;
15502;SDS011;7853;52.186;5.948;2022-08-07T03:33:57;4.11;;;3.47;;
15502;SDS011;7853;52.186;5.948;2022-08-07T03:34:56;5.31;;;3.63;;
15502;SDS011;7853;52.186;5.948;2022-08-07T03:35:56;5.52;;;3.54;;
15502;SDS011;7853;52.186;5.948;2022-08-07T03:36:56;5.17;;;3.90;;
15502;SDS011;7853;52.186;5.948;2022-08-07T03:37:57;5.45;;;3.59;;
15502;SDS011;7853;52.186;5.948;2022-08-07T03:38:58;5.75;;;3.77;;
15502;SDS011;7853;52.186;5.948;2022-08-07T03:39:56;5.27;;;3.82;;
15502;SDS011;7853;52.186;5.948;2022-08-07T03:40:56;5.39;;;3.74;;
15502;SDS011;7853;52.186;5.948;2022-08-07T03:41:56;5.62;;;3.76;;
15502;SDS011;7853;52.186;5.948;2022-08-07T03:42:56;5.23;;;3.71;;
15502;SDS011;7853;52.186;5.948;2022-08-07T03:43:57;5.33;;;3.73;;
15502;SDS011;7853;52.186;5.948;2022-08-07T03:44:57;5.85;;;4.05;;
15502;SDS011;7853;52.186;5.948;2022-08-07T03:45:57;5.86;;;3.92;;
15502;SDS011;7853;52.186;5.948;2022-08-07T03:46:57;5.71;;;4.03;;
15502;SDS011;7853;52.186;5.948;2022-08-07T03:47:57;6.18;;;3.63;;
15502;SDS011;7853;52.186;5.948;2022-08-07T03:48:57;6.36;;;3.89;;
15502;SDS011;7853;52.186;5.948;2022-08-07T03:49:57;5.90;;;4.61;;
15502;SDS011;7853;52.186;5.948;2022-08-07T03:50:57;6.44;;;4.03;;
15502;SDS011;7853;52.186;5.948;2022-08-07T03:51:57;5.35;;;4.08;;
15502;SDS011;7853;52.186;5.948;2022-08-07T03:52:57;5.13;;;4.05;;
15502;SDS011;7853;52.186;5.948;2022-08-07T03:53:57;4.65;;;3.61;;
15502;SDS011;7853;52.186;5.948;2022-08-07T03:54:57;5.80;;;3.75;;
15502;SDS011;7853;52.186;5.948;2022-08-07T03:55:57;6.18;;;3.87;;
15502;SDS011;7853;52.186;5.948;2022-08-07T03:56:57;5.17;;;3.93;;
15502;SDS011;7853;52.186;5.948;2022-08-07T03:57:57;5.43;;;3.92;;
15502;SDS011;7853;52.186;5.948;2022-08-07T03:58:57;7.22;;;3.82;;
15502;SDS011;7853;52.186;5.948;2022-08-07T03:59:57;4.90;;;3.69;;
15502;SDS011;7853;52.186;5.948;2022-08-07T04:00:57;6.15;;;4.03;;
15502;SDS011;7853;52.186;5.948;2022-08-07T04:01:58;5.41;;;4.10;;
15502;SDS011;7853;52.186;5.948;2022-08-07T04:02:57;6.64;;;4.12;;
15502;SDS011;7853;52.186;5.948;2022-08-07T04:03:58;6.10;;;4.08;;
15502;SDS011;7853;52.186;5.948;2022-08-07T04:04:58;5.61;;;3.91;;
15502;SDS011;7853;52.186;5.948;2022-08-07T04:05:58;5.61;;;4.03;;
15502;SDS011;7853;52.186;5.948;2022-08-07T04:06:58;5.64;;;3.79;;
15502;SDS011;7853;52.186;5.948;2022-08-07T04:07:59;5.65;;;4.08;;
15502;SDS011;7853;52.186;5.948;2022-08-07T04:08:58;5.13;;;4.04;;
15502;SDS011;7853;52.186;5.948;2022-08-07T04:09:58;5.52;;;3.81;;
15502;SDS011;7853;52.186;5.948;2022-08-07T04:10:58;5.47;;;4.17;;
15502;SDS011;7853;52.186;5.948;2022-08-07T04:11:58;5.84;;;3.98;;
15502;SDS011;7853;52.186;5.948;2022-08-07T04:12:58;5.45;;;3.94;;
15502;SDS011;7853;52.186;5.948;2022-08-07T04:13:58;5.59;;;4.32;;
15502;SDS011;7853;52.186;5.948;2022-08-07T04:14:58;6.27;;;4.13;;
15502;SDS011;7853;52.186;5.948;2022-08-07T04:15:58;6.89;;;4.50;;
15502;SDS011;7853;52.186;5.948;2022-08-07T04:16:58;7.03;;;4.35;;
15502;SDS011;7853;52.186;5.948;2022-08-07T04:17:58;5.83;;;4.44;;
15502;SDS011;7853;52.186;5.948;2022-08-07T04:18:58;7.21;;;4.34;;
15502;SDS011;7853;52.186;5.948;2022-08-07T04:19:58;7.70;;;4.39;;
15502;SDS011;7853;52.186;5.948;2022-08-07T04:20:58;6.30;;;4.34;;
15502;SDS011;7853;52.186;5.948;2022-08-07T04:21:58;5.25;;;4.30;;
15502;SDS011;7853;52.186;5.948;2022-08-07T04:22:58;6.78;;;4.62;;
15502;SDS011;7853;52.186;5.948;2022-08-07T04:23:59;7.21;;;4.57;;
15502;SDS011;7853;52.186;5.948;2022-08-07T04:24:59;6.91;;;4.73;;
15502;SDS011;7853;52.186;5.948;2022-08-07T04:25:59;7.19;;;4.89;;
15502;SDS011;7853;52.186;5.948;2022-08-07T04:26:59;7.56;;;4.86;;
15502;SDS011;7853;52.186;5.948;2022-08-07T04:27:59;6.22;;;4.54;;
15502;SDS011;7853;52.186;5.948;2022-08-07T04:28:59;7.14;;;4.68;;
15502;SDS011;7853;52.186;5.948;2022-08-07T04:29:59;6.82;;;4.84;;
15502;SDS011;7853;52.186;5.948;2022-08-07T04:30:59;6.10;;;4.79;;
15502;SDS011;7853;52.186;5.948;2022-08-07T04:31:59;6.43;;;4.63;;
15502;SDS011;7853;52.186;5.948;2022-08-07T04:32:59;6.84;;;4.55;;
15502;SDS011;7853;52.186;5.948;2022-08-07T04:33:59;7.22;;;4.82;;
15502;SDS011;7853;52.186;5.948;2022-08-07T04:34:59;6.89;;;4.70;;
15502;SDS011;7853;52.186;5.948;2022-08-07T04:35:59;5.86;;;4.09;;
15502;SDS011;7853;52.186;5.948;2022-08-07T04:36:59;8.10;;;4.87;;
15502;SDS011;7853;52.186;5.948;2022-08-07T04:38:02;7.84;;;4.73;;
15502;SDS011;7853;52.186;5.948;2022-08-07T04:38:59;6.50;;;4.85;;
15502;SDS011;7853;52.186;5.948;2022-08-07T04:39:59;7.85;;;4.78;;
15502;SDS011;7853;52.186;5.948;2022-08-07T04:40:59;7.23;;;4.88;;
15502;SDS011;7853;52.186;5.948;2022-08-07T04:42:00;11.02;;;5.09;;
15502;SDS011;7853;52.186;5.948;2022-08-07T04:42:59;7.13;;;5.01;;
15502;SDS011;7853;52.186;5.948;2022-08-07T04:44:00;7.90;;;5.08;;
15502;SDS011;7853;52.186;5.948;2022-08-07T04:45:00;6.45;;;4.92;;
15502;SDS011;7853;52.186;5.948;2022-08-07T04:46:01;6.81;;;4.67;;
15502;SDS011;7853;52.186;5.948;2022-08-07T04:47:02;6.52;;;4.72;;
15502;SDS011;7853;52.186;5.948;2022-08-07T04:48:01;8.32;;;5.07;;
15502;SDS011;7853;52.186;5.948;2022-08-07T04:49:02;6.85;;;5.32;;
15502;SDS011;7853;52.186;5.948;2022-08-07T04:50:01;8.19;;;4.87;;
15502;SDS011;7853;52.186;5.948;2022-08-07T04:51:02;8.06;;;5.26;;
15502;SDS011;7853;52.186;5.948;2022-08-07T04:52:02;7.31;;;5.05;;
15502;SDS011;7853;52.186;5.948;2022-08-07T04:53:02;8.69;;;5.34;;
15502;SDS011;7853;52.186;5.948;2022-08-07T04:54:01;7.88;;;5.06;;
15502;SDS011;7853;52.186;5.948;2022-08-07T04:55:00;7.76;;;5.37;;
15502;SDS011;7853;52.186;5.948;2022-08-07T04:56:12;8.53;;;5.38;;
15502;SDS011;7853;52.186;5.948;2022-08-07T04:57:03;10.46;;;5.23;;
15502;SDS011;7853;52.186;5.948;2022-08-07T04:58:02;8.04;;;5.31;;
15502;SDS011;7853;52.186;5.948;2022-08-07T04:59:01;6.36;;;4.85;;
15502;SDS011;7853;52.186;5.948;2022-08-07T05:00:00;8.37;;;5.07;;
15502;SDS011;7853;52.186;5.948;2022-08-07T05:01:02;7.51;;;5.09;;
15502;SDS011;7853;52.186;5.948;2022-08-07T05:02:01;7.72;;;5.19;;
15502;SDS011;7853;52.186;5.948;2022-08-07T05:03:03;7.53;;;5.21;;
15502;SDS011;7853;52.186;5.948;2022-08-07T05:04:02;7.17;;;4.74;;
15502;SDS011;7853;52.186;5.948;2022-08-07T05:05:02;9.52;;;5.35;;
15502;SDS011;7853;52.186;5.948;2022-08-07T05:06:02;8.05;;;5.23;;
15502;SDS011;7853;52.186;5.948;2022-08-07T05:07:02;7.62;;;5.51;;
15502;SDS011;7853;52.186;5.948;2022-08-07T05:08:02;8.82;;;5.30;;
15502;SDS011;7853;52.186;5.948;2022-08-07T05:09:03;8.22;;;5.33;;
15502;SDS011;7853;52.186;5.948;2022-08-07T05:10:02;7.17;;;5.21;;
15502;SDS011;7853;52.186;5.948;2022-08-07T05:11:03;7.23;;;5.29;;
15502;SDS011;7853;52.186;5.948;2022-08-07T05:12:01;8.67;;;5.75;;
15502;SDS011;7853;52.186;5.948;2022-08-07T05:13:02;7.51;;;5.59;;
15502;SDS011;7853;52.186;5.948;2022-08-07T05:14:02;7.27;;;5.55;;
15502;SDS011;7853;52.186;5.948;2022-08-07T05:15:04;7.38;;;5.26;;
15502;SDS011;7853;52.186;5.948;2022-08-07T05:16:01;10.12;;;5.64;;
15502;SDS011;7853;52.186;5.948;2022-08-07T05:17:01;8.37;;;5.58;;
15502;SDS011;7853;52.186;5.948;2022-08-07T05:18:02;7.81;;;5.57;;
15502;SDS011;7853;52.186;5.948;2022-08-07T05:19:02;8.94;;;5.65;;
15502;SDS011;7853;52.186;5.948;2022-08-07T05:20:01;8.20;;;5.62;;
15502;SDS011;7853;52.186;5.948;2022-08-07T05:21:02;7.79;;;5.49;;
15502;SDS011;7853;52.186;5.948;2022-08-07T05:22:01;7.56;;;5.52;;
15502;SDS011;7853;52.186;5.948;2022-08-07T05:23:03;8.51;;;6.05;;
15502;SDS011;7853;52.186;5.948;2022-08-07T05:24:02;8.07;;;5.80;;
15502;SDS011;7853;52.186;5.948;2022-08-07T05:25:02;9.60;;;6.25;;
15502;SDS011;7853;52.186;5.948;2022-08-07T05:26:02;8.80;;;5.45;;
15502;SDS011;7853;52.186;5.948;2022-08-07T05:27:02;9.58;;;5.81;;
15502;SDS011;7853;52.186;5.948;2022-08-07T05:28:02;7.70;;;5.58;;
15502;SDS011;7853;52.186;5.948;2022-08-07T05:29:02;8.81;;;5.94;;
15502;SDS011;7853;52.186;5.948;2022-08-07T05:30:02;7.39;;;5.79;;
15502;SDS011;7853;52.186;5.948;2022-08-07T05:31:02;7.55;;;5.28;;
15502;SDS011;7853;52.186;5.948;2022-08-07T05:32:02;7.41;;;5.68;;
15502;SDS011;7853;52.186;5.948;2022-08-07T05:33:02;9.47;;;5.81;;
15502;SDS011;7853;52.186;5.948;2022-08-07T05:34:02;7.80;;;5.73;;
15502;SDS011;7853;52.186;5.948;2022-08-07T05:35:02;9.64;;;6.48;;
15502;SDS011;7853;52.186;5.948;2022-08-07T05:36:02;9.68;;;6.11;;
15502;SDS011;7853;52.186;5.948;2022-08-07T05:37:02;8.80;;;5.87;;
15502;SDS011;7853;52.186;5.948;2022-08-07T05:38:02;9.03;;;5.57;;
15502;SDS011;7853;52.186;5.948;2022-08-07T05:39:02;8.34;;;5.76;;
15502;SDS011;7853;52.186;5.948;2022-08-07T05:40:02;9.32;;;5.90;;
15502;SDS011;7853;52.186;5.948;2022-08-07T05:41:02;8.00;;;5.86;;
15502;SDS011;7853;52.186;5.948;2022-08-07T05:42:02;8.34;;;5.73;;
15502;SDS011;7853;52.186;5.948;2022-08-07T05:43:02;8.96;;;5.75;;
15502;SDS011;7853;52.186;5.948;2022-08-07T05:44:02;7.94;;;6.03;;
15502;SDS011;7853;52.186;5.948;2022-08-07T05:45:03;7.96;;;5.90;;
15502;SDS011;7853;52.186;5.948;2022-08-07T05:46:03;8.81;;;5.80;;
15502;SDS011;7853;52.186;5.948;2022-08-07T05:47:03;8.28;;;6.15;;
15502;SDS011;7853;52.186;5.948;2022-08-07T05:48:03;10.30;;;6.51;;
15502;SDS011;7853;52.186;5.948;2022-08-07T05:49:04;7.91;;;5.99;;
15502;SDS011;7853;52.186;5.948;2022-08-07T05:50:03;10.94;;;6.00;;
15502;SDS011;7853;52.186;5.948;2022-08-07T05:51:03;7.97;;;6.11;;
15502;SDS011;7853;52.186;5.948;2022-08-07T05:52:03;7.85;;;5.93;;
15502;SDS011;7853;52.186;5.948;2022-08-07T05:53:03;9.30;;;5.60;;
15502;SDS011;7853;52.186;5.948;2022-08-07T05:54:03;8.40;;;6.23;;
15502;SDS011;7853;52.186;5.948;2022-08-07T05:55:03;9.67;;;6.56;;
15502;SDS011;7853;52.186;5.948;2022-08-07T05:56:03;8.81;;;6.39;;
15502;SDS011;7853;52.186;5.948;2022-08-07T05:57:03;8.63;;;6.37;;
15502;SDS011;7853;52.186;5.948;2022-08-07T05:58:03;9.09;;;6.79;;
15502;SDS011;7853;52.186;5.948;2022-08-07T05:59:04;8.78;;;6.76;;
15502;SDS011;7853;52.186;5.948;2022-08-07T06:00:04;8.27;;;6.28;;
15502;SDS011;7853;52.186;5.948;2022-08-07T06:01:04;8.56;;;6.40;;
15502;SDS011;7853;52.186;5.948;2022-08-07T06:02:03;11.23;;;6.88;;
15502;SDS011;7853;52.186;5.948;2022-08-07T06:03:04;10.16;;;7.32;;
15502;SDS011;7853;52.186;5.948;2022-08-07T06:04:04;10.38;;;7.28;;
15502;SDS011;7853;52.186;5.948;2022-08-07T06:05:04;10.07;;;6.84;;
15502;SDS011;7853;52.186;5.948;2022-08-07T06:06:04;10.79;;;7.10;;
15502;SDS011;7853;52.186;5.948;2022-08-07T06:07:04;9.98;;;6.87;;